Time;durP1;ratioP1;P1;durP2;ratioP2;P2;SDS_P1;SDS_P2;PMS_P1;PMS_P2;Temp;Humidity;BMP_temperature;BMP_pressure;BME280_temperature;BME280_humidity;BME280_pressure;Samples;Min_cycle;Max_cycle;Signal;HPM_P1;HPM_P2
2024/03/10 00:04:28;;;;;;;9.38;6.32;;;;;;;;;;13104819;22;20019;-73
2024/03/10 00:09:31;;;;;;;8.18;5.47;;;;;;;;;;13104054;22;20410;-73
2024/03/10 00:14:35;;;;;;;9.65;6.72;;;;;;;;;;13103214;22;20023;-73
2024/03/10 00:19:39;;;;;;;10.82;6.53;;;;;;;;;;13103046;22;20597;-73
2024/03/10 00:24:43;;;;;;;10.90;7.07;;;;;;;;;;13103673;22;20106;-73
2024/03/10 00:29:47;;;;;;;8.00;5.72;;;;;;;;;;13102789;22;20019;-73
2024/03/10 00:34:51;;;;;;;7.95;5.55;;;;;;;;;;13102760;22;20022;-73
2024/03/10 00:39:55;;;;;;;8.70;5.88;;;;;;;;;;13101989;22;20104;-73
2024/03/10 00:44:58;;;;;;;10.38;6.57;;;;;;;;;;13123681;22;20098;-73
2024/03/10 00:50:04;;;;;;;10.20;6.80;;;;;;;;;;13122510;22;20090;-73
2024/03/10 00:55:09;;;;;;;;;;;;;;;;;;13102989;22;20014;-73
2024/03/10 01:00:13;;;;;;;6.35;4.53;;;;;;;;;;13121575;22;19981;-73
2024/03/10 01:05:20;;;;;;;6.90;4.75;;;;;;;;;;13101880;22;20090;-73
2024/03/10 01:10:23;;;;;;;6.10;4.22;;;;;;;;;;13121909;22;20019;-73
2024/03/10 01:15:26;;;;;;;5.60;4.40;;;;;;;;;;13120997;22;20198;-73
2024/03/10 01:20:31;;;;;;;5.63;4.63;;;;;;;;;;13119881;22;20038;-73
2024/03/10 01:25:34;;;;;;;6.57;4.30;;;;;;;;;;13119750;22;20527;-73
2024/03/10 01:30:38;;;;;;;6.03;4.32;;;;;;;;;;13119171;22;20474;-73
2024/03/10 01:35:43;;;;;;;7.07;4.43;;;;;;;;;;13119022;22;20029;-73
2024/03/10 01:40:46;;;;;;;7.53;4.60;;;;;;;;;;13118887;22;20066;-73
2024/03/10 01:45:54;;;;;;;6.40;4.38;;;;;;;;;;13118400;22;20054;-73
2024/03/10 01:50:59;;;;;;;6.50;4.57;;;;;;;;;;13101344;22;20417;-73
2024/03/10 01:56:04;;;;;;;5.78;4.43;;;;;;;;;;13118044;22;20653;-73
2024/03/10 02:01:09;;;;;;;5.90;4.20;;;;;;;;;;13102799;22;20022;-73
2024/03/10 02:06:14;;;;;;;5.77;4.10;;;;;;;;;;13124317;22;20023;-73
2024/03/10 02:11:20;;;;;;;7.43;5.05;;;;;;;;;;13123390;22;20530;-73
2024/03/10 02:16:23;;;;;;;5.70;4.47;;;;;;;;;;13123470;22;20034;-73
2024/03/10 02:21:28;;;;;;;6.15;4.32;;;;;;;;;;13107273;22;20076;-73
2024/03/10 02:26:37;;;;;;;6.35;4.55;;;;;;;;;;13122931;22;20039;-73
2024/03/10 02:47:44;;;;;;;6.20;4.65;;;;;;;;;;13113104;22;20073;-73
2024/03/10 02:52:47;;;;;;;6.40;4.25;;;;;;;;;;13106259;22;20019;-73
2024/03/10 02:57:52;;;;;;;6.80;4.72;;;;;;;;;;13108008;22;20015;-73
2024/03/10 03:02:55;;;;;;;8.07;4.93;;;;;;;;;;13116127;22;20033;-73
2024/03/10 03:07:59;;;;;;;5.95;4.40;;;;;;;;;;13107677;22;20101;-73
2024/03/10 03:13:04;;;;;;;6.75;4.40;;;;;;;;;;13113916;22;20102;-73
2024/03/10 03:18:08;;;;;;;6.68;4.88;;;;;;;;;;13075508;22;20145;-73
2024/03/10 03:23:11;;;;;;;7.28;4.70;;;;;;;;;;13104143;22;20098;-73
2024/03/10 03:28:17;;;;;;;7.50;4.97;;;;;;;;;;13111028;22;20097;-73
2024/03/10 03:33:21;;;;;;;6.43;4.45;;;;;;;;;;13110203;22;20114;-73
2024/03/10 03:38:24;;;;;;;5.25;4.15;;;;;;;;;;13076045;22;20106;-73
2024/03/10 03:43:28;;;;;;;7.35;4.88;;;;;;;;;;13110000;22;20042;-73
2024/03/10 03:48:32;;;;;;;6.05;4.35;;;;;;;;;;13108907;22;20058;-73
2024/03/10 03:53:35;;;;;;;7.53;4.68;;;;;;;;;;13104293;22;20029;-73
2024/03/10 03:58:40;;;;;;;5.90;4.32;;;;;;;;;;13075398;22;20026;-73
2024/03/10 04:03:44;;;;;;;5.83;4.13;;;;;;;;;;13103821;22;20104;-73
2024/03/10 04:08:48;;;;;;;5.95;4.22;;;;;;;;;;13108040;22;20671;-73
2024/03/10 04:13:53;;;;;;;6.78;4.30;;;;;;;;;;13107460;22;20504;-73
2024/03/10 04:18:56;;;;;;;7.22;4.80;;;;;;;;;;13106328;22;20029;-73
2024/03/10 04:23:59;;;;;;;7.90;4.93;;;;;;;;;;13106349;22;20018;-73
2024/03/10 04:29:04;;;;;;;7.90;4.90;;;;;;;;;;13106598;22;20015;-74
2024/03/10 04:34:09;;;;;;;7.30;5.03;;;;;;;;;;13105971;22;20054;-73
2024/03/10 04:39:12;;;;;;;6.25;4.47;;;;;;;;;;13105462;22;20018;-74
2024/03/10 04:44:17;;;;;;;6.85;4.80;;;;;;;;;;13105133;22;20031;-73
2024/03/10 04:49:20;;;;;;;7.28;5.20;;;;;;;;;;13104619;22;20042;-73
2024/03/10 04:54:23;;;;;;;6.53;4.97;;;;;;;;;;13104627;22;20023;-73
2024/03/10 04:59:28;;;;;;;6.47;4.93;;;;;;;;;;13103731;22;20023;-73
2024/03/10 05:04:31;;;;;;;5.78;4.10;;;;;;;;;;13104286;22;20061;-74
2024/03/10 05:09:34;;;;;;;6.22;4.50;;;;;;;;;;13103364;22;20022;-73
2024/03/10 05:14:39;;;;;;;5.57;4.20;;;;;;;;;;13103580;22;20101;-73
2024/03/10 05:19:43;;;;;;;6.75;4.55;;;;;;;;;;13102473;22;20049;-74
2024/03/10 05:24:46;;;;;;;5.82;4.18;;;;;;;;;;13102472;22;20031;-73
2024/03/10 05:29:52;;;;;;;6.75;4.35;;;;;;;;;;13101755;22;20492;-73
2024/03/10 05:34:56;;;;;;;5.63;4.18;;;;;;;;;;13101711;22;20105;-73
2024/03/10 05:39:59;;;;;;;6.65;4.55;;;;;;;;;;13122783;22;20034;-73
2024/03/10 05:45:06;;;;;;;5.78;4.22;;;;;;;;;;13122350;22;20019;-73
2024/03/10 05:50:09;;;;;;;6.72;4.40;;;;;;;;;;13102446;22;20011;-73
2024/03/10 05:55:13;;;;;;;7.15;4.93;;;;;;;;;;13121981;22;20039;-73
2024/03/10 06:00:18;;;;;;;7.40;4.78;;;;;;;;;;13121315;22;20446;-73
2024/03/10 06:05:21;;;;;;;6.90;5.17;;;;;;;;;;13121343;22;20029;-73
2024/03/10 06:10:26;;;;;;;6.70;4.57;;;;;;;;;;13121009;22;20018;-75
2024/03/10 06:15:31;;;;;;;6.38;4.38;;;;;;;;;;13119778;22;20417;-73
2024/03/10 06:25:55;;;;;;;7.68;5.20;;;;;;;;;;13118066;22;20023;-73
2024/03/10 06:31:00;;;;;;;5.78;4.18;;;;;;;;;;13117613;22;20042;-73
2024/03/10 06:36:08;;;;;;;6.57;4.68;;;;;;;;;;13073785;22;20021;-73
2024/03/10 06:41:12;;;;;;;5.97;4.32;;;;;;;;;;13116507;22;20463;-73
2024/03/10 06:46:16;;;;;;;6.18;4.07;;;;;;;;;;13116839;22;20022;-73
2024/03/10 06:51:21;;;;;;;6.45;4.55;;;;;;;;;;13104286;22;20612;-74
2024/03/10 06:56:24;;;;;;;6.10;4.63;;;;;;;;;;13077692;22;20033;-73
2024/03/10 07:01:30;;;;;;;7.38;5.55;;;;;;;;;;13076180;22;20084;-73
2024/03/10 07:06:34;;;;;;;7.68;5.80;;;;;;;;;;13119092;22;20023;-73
2024/03/10 07:11:39;;;;;;;5.95;4.22;;;;;;;;;;13118674;22;20601;-73
2024/03/10 07:16:47;;;;;;;6.38;5.10;;;;;;;;;;13117860;22;20042;-73
2024/03/10 07:21:51;;;;;;;8.07;5.50;;;;;;;;;;13103043;22;20537;-73
2024/03/10 07:26:54;;;;;;;6.50;4.43;;;;;;;;;;13115675;22;20026;-73
2024/03/10 07:31:59;;;;;;;8.73;5.63;;;;;;;;;;13115593;22;20033;-73
2024/03/10 07:37:02;;;;;;;8.40;4.82;;;;;;;;;;13115779;22;20045;-73
2024/03/10 07:42:06;;;;;;;7.10;4.45;;;;;;;;;;13114360;22;20027;-73
2024/03/10 07:47:12;;;;;;;7.57;5.43;;;;;;;;;;13103027;22;20025;-73
2024/03/10 07:52:15;;;;;;;;;;;;;;;;;;13114043;22;20022;-73
2024/03/10 07:57:18;;;;;;;5.88;3.97;;;;;;;;;;13114821;22;19918;-73
2024/03/10 08:02:23;;;;;;;6.05;4.25;;;;;;;;;;13113041;22;20025;-73
2024/03/10 08:07:26;;;;;;;6.35;4.60;;;;;;;;;;13113136;22;20046;-73
2024/03/10 08:12:29;;;;;;;6.40;4.13;;;;;;;;;;13112727;22;20089;-73
2024/03/10 08:17:34;;;;;;;6.85;4.85;;;;;;;;;;13102846;22;20049;-73
2024/03/10 08:22:37;;;;;;;6.68;4.50;;;;;;;;;;13111486;22;20335;-73
2024/03/10 08:27:40;;;;;;;7.45;4.80;;;;;;;;;;13102863;22;20050;-73
2024/03/10 08:32:45;;;;;;;7.70;5.03;;;;;;;;;;13102343;22;20517;-74
2024/03/10 08:37:49;;;;;;;6.18;4.38;;;;;;;;;;13108892;22;20056;-73
2024/03/10 08:42:52;;;;;;;7.07;4.68;;;;;;;;;;13073784;22;20033;-73
2024/03/10 08:47:57;;;;;;;7.10;5.13;;;;;;;;;;13100857;22;20033;-73
2024/03/10 08:53:00;;;;;;;7.20;5.32;;;;;;;;;;13100209;22;20453;-73
2024/03/10 08:58:04;;;;;;;9.23;6.25;;;;;;;;;;13073689;22;20034;-73
2024/03/10 09:03:09;;;;;;;7.85;5.60;;;;;;;;;;13109375;22;20030;-73
2024/03/10 09:08:13;;;;;;;8.13;5.35;;;;;;;;;;13103394;22;20097;-73
2024/03/10 09:13:16;;;;;;;7.47;4.68;;;;;;;;;;13109056;22;20085;-74
2024/03/10 09:18:21;;;;;;;7.93;5.55;;;;;;;;;;13108549;22;20026;-73
2024/03/10 09:23:25;;;;;;;9.68;7.25;;;;;;;;;;13108258;22;20053;-73
2024/03/10 09:28:28;;;;;;;9.13;6.38;;;;;;;;;;13108101;22;20022;-73
2024/03/10 09:33:33;;;;;;;8.43;6.57;;;;;;;;;;13108008;22;20049;-74
2024/03/10 09:38:36;;;;;;;11.77;8.25;;;;;;;;;;13074031;22;20023;-73
2024/03/10 09:43:41;;;;;;;11.88;8.35;;;;;;;;;;13074259;22;20018;-73
2024/03/10 09:48:45;;;;;;;11.30;8.07;;;;;;;;;;13105831;22;20029;-73
2024/03/10 09:53:50;;;;;;;10.70;7.57;;;;;;;;;;13106054;22;20038;-74
2024/03/10 09:59:01;;;;;;;12.02;8.30;;;;;;;;;;13073501;22;20098;-73
2024/03/10 10:04:10;;;;;;;11.80;8.68;;;;;;;;;;13073844;22;20038;-73
2024/03/10 10:09:14;;;;;;;12.77;8.30;;;;;;;;;;13103828;22;20089;-73
2024/03/10 10:14:23;;;;;;;11.27;7.43;;;;;;;;;;13103806;22;20019;-73
2024/03/10 10:19:29;;;;;;;10.32;7.70;;;;;;;;;;13073413;22;20019;-74
2024/03/10 10:24:32;;;;;;;10.00;7.50;;;;;;;;;;13104814;22;20380;-73
2024/03/10 10:29:48;;;;;;;12.15;8.63;;;;;;;;;;13106342;22;20342;-73
2024/03/10 10:34:56;;;;;;;7.93;6.35;;;;;;;;;;13076915;22;20038;-74
2024/03/10 10:40:11;;;;;;;10.48;7.45;;;;;;;;;;13125780;22;20038;-73
2024/03/10 10:45:16;;;;;;;8.45;6.22;;;;;;;;;;13124400;22;20495;-73
2024/03/10 10:50:31;;;;;;;10.30;7.83;;;;;;;;;;13124278;22;20029;-73
2024/03/10 10:55:39;;;;;;;10.98;7.50;;;;;;;;;;13123135;22;20029;-73
2024/03/10 11:00:49;;;;;;;11.98;8.35;;;;;;;;;;13122423;22;20082;-73
2024/03/10 11:06:30;;;;;;;10.68;7.85;;;;;;;;;;13121540;22;20045;-73
2024/03/10 11:11:45;;;;;;;10.73;8.07;;;;;;;;;;13118525;22;20094;-73
2024/03/10 11:16:49;;;;;;;11.98;7.63;;;;;;;;;;13117879;22;20022;-73
2024/03/10 11:21:56;;;;;;;8.80;6.90;;;;;;;;;;13116148;22;20014;-73
2024/03/10 11:27:19;;;;;;;9.65;7.40;;;;;;;;;;13116182;22;20381;-73
2024/03/10 11:32:43;;;;;;;9.10;6.53;;;;;;;;;;13113704;22;20029;-73
2024/03/10 11:37:49;;;;;;;10.95;8.05;;;;;;;;;;13092206;22;20023;-73
2024/03/10 11:42:55;;;;;;;10.90;7.20;;;;;;;;;;13103601;22;20097;-73
2024/03/10 11:47:58;;;;;;;10.73;8.05;;;;;;;;;;13069892;22;20624;-73
2024/03/10 11:53:03;;;;;;;9.80;7.50;;;;;;;;;;13103750;22;20147;-73
2024/03/10 11:58:06;;;;;;;11.30;8.23;;;;;;;;;;13110601;22;20089;-73
2024/03/10 12:03:12;;;;;;;9.50;7.20;;;;;;;;;;13109886;22;20505;-73
2024/03/10 12:08:19;;;;;;;11.10;8.07;;;;;;;;;;13109378;22;20023;-73
2024/03/10 12:13:22;;;;;;;11.40;8.23;;;;;;;;;;13109636;22;20726;-73
2024/03/10 12:18:25;;;;;;;11.52;8.63;;;;;;;;;;13108548;22;20041;-73
2024/03/10 12:23:34;;;;;;;9.82;7.50;;;;;;;;;;13108542;22;20019;-73
2024/03/10 12:28:38;;;;;;;9.82;6.32;;;;;;;;;;13107727;22;20046;-73
2024/03/10 12:33:43;;;;;;;11.68;6.63;;;;;;;;;;13075132;22;20025;-73
2024/03/10 12:38:47;;;;;;;9.18;6.60;;;;;;;;;;13106547;22;20097;-73
2024/03/10 12:43:55;;;;;;;9.30;6.32;;;;;;;;;;13105032;22;20026;-73
2024/03/10 12:48:58;;;;;;;8.50;6.55;;;;;;;;;;13100466;22;20493;-73
2024/03/10 12:54:02;;;;;;;8.05;6.22;;;;;;;;;;13105631;22;20098;-73
2024/03/10 12:59:06;;;;;;;9.30;7.15;;;;;;;;;;13074502;22;20098;-73
2024/03/10 13:04:10;;;;;;;7.32;5.82;;;;;;;;;;13074112;22;20067;-73
2024/03/10 13:09:16;;;;;;;6.70;5.35;;;;;;;;;;13104495;22;20102;-73
2024/03/10 13:14:20;;;;;;;6.93;4.73;;;;;;;;;;13102210;22;20019;-73
2024/03/10 13:19:23;;;;;;;7.07;5.78;;;;;;;;;;13101127;22;20103;-73
2024/03/10 13:24:27;;;;;;;8.90;6.50;;;;;;;;;;13073812;22;20029;-73
2024/03/10 13:29:31;;;;;;;7.57;5.30;;;;;;;;;;13101616;22;20290;-73
2024/03/10 13:34:34;;;;;;;6.35;4.82;;;;;;;;;;13101168;22;20105;-73
2024/03/10 13:39:40;;;;;;;6.57;5.20;;;;;;;;;;13102008;22;20076;-73
2024/03/10 13:44:44;;;;;;;6.35;5.00;;;;;;;;;;13102181;22;20213;-73
2024/03/10 13:49:47;;;;;;;6.13;4.78;;;;;;;;;;13101548;22;20023;-73
2024/03/10 13:54:52;;;;;;;6.57;4.70;;;;;;;;;;13100384;22;20664;-73
2024/03/10 13:59:55;;;;;;;7.40;5.38;;;;;;;;;;13101479;22;20450;-73
2024/03/10 14:05:00;;;;;;;9.35;6.55;;;;;;;;;;13121658;22;20025;-73
2024/03/10 14:10:07;;;;;;;9.60;6.97;;;;;;;;;;13073229;22;20050;-73
2024/03/10 14:15:10;;;;;;;8.88;5.53;;;;;;;;;;13120687;22;20018;-73
2024/03/10 14:20:15;;;;;;;8.15;5.55;;;;;;;;;;13120724;22;20086;-73
2024/03/10 14:25:21;;;;;;;8.10;5.32;;;;;;;;;;13120787;22;20323;-73
2024/03/10 14:30:26;;;;;;;7.85;5.55;;;;;;;;;;13119966;22;20101;-73
2024/03/10 14:35:29;;;;;;;5.57;4.50;;;;;;;;;;13119573;22;20089;-73
2024/03/10 14:40:34;;;;;;;6.05;4.25;;;;;;;;;;13101264;22;20084;-73
2024/03/10 14:45:38;;;;;;;5.50;4.28;;;;;;;;;;13118780;22;20045;-73
2024/03/10 14:50:41;;;;;;;5.43;4.15;;;;;;;;;;13118342;22;20102;-73
2024/03/10 14:55:46;;;;;;;5.68;4.10;;;;;;;;;;13101323;22;20454;-73
2024/03/10 15:00:51;;;;;;;9.57;5.10;;;;;;;;;;13117577;22;20023;-73
2024/03/10 15:05:54;;;;;;;6.25;4.38;;;;;;;;;;13100800;22;20023;-73
2024/03/10 15:10:59;;;;;;;6.68;4.50;;;;;;;;;;13119185;22;20029;-73
2024/03/10 15:16:03;;;;;;;5.93;4.47;;;;;;;;;;13104258;22;20538;-73
2024/03/10 15:21:07;;;;;;;5.50;4.43;;;;;;;;;;13119791;22;20523;-73
2024/03/10 15:26:12;;;;;;;6.28;4.53;;;;;;;;;;13119552;22;20033;-73
2024/03/10 15:31:15;;;;;;;5.80;5.10;;;;;;;;;;13118835;22;20033;-73
2024/03/10 15:36:19;;;;;;;8.85;5.57;;;;;;;;;;13119087;22;20478;-73
2024/03/10 15:41:24;;;;;;;6.45;5.03;;;;;;;;;;13103622;22;20037;-73
2024/03/10 15:46:27;;;;;;;7.18;5.47;;;;;;;;;;13103165;22;20023;-73
2024/03/10 15:51:30;;;;;;;8.85;6.53;;;;;;;;;;13115702;22;20029;-73
2024/03/10 15:56:36;;;;;;;10.73;5.75;;;;;;;;;;13117376;22;20033;-73
2024/03/10 16:01:40;;;;;;;8.18;5.68;;;;;;;;;;13101736;22;20536;-73
2024/03/10 16:06:43;;;;;;;6.13;4.88;;;;;;;;;;13115926;22;20037;-73
2024/03/10 16:11:49;;;;;;;9.98;7.38;;;;;;;;;;13115270;22;20022;-73
2024/03/10 16:16:53;;;;;;;10.95;8.02;;;;;;;;;;13102335;22;20400;-73
2024/03/10 16:21:56;;;;;;;8.52;6.43;;;;;;;;;;13114915;22;20062;-73
2024/03/10 16:27:01;;;;;;;8.15;6.13;;;;;;;;;;13114885;22;20027;-73
2024/03/10 16:32:05;;;;;;;7.60;5.72;;;;;;;;;;13114212;22;20033;-73
2024/03/10 16:37:09;;;;;;;8.38;5.60;;;;;;;;;;13114107;22;20030;-73
2024/03/10 16:42:13;;;;;;;8.85;6.45;;;;;;;;;;13114192;22;20144;-73
2024/03/10 16:47:17;;;;;;;6.70;5.22;;;;;;;;;;13102346;22;20030;-73
2024/03/10 16:52:20;;;;;;;7.50;5.65;;;;;;;;;;13074292;22;20401;-73
2024/03/10 16:57:25;;;;;;;6.85;5.07;;;;;;;;;;13074652;22;20672;-73
2024/03/10 17:02:28;;;;;;;7.40;5.90;;;;;;;;;;13102016;22;20026;-73
2024/03/10 17:07:31;;;;;;;8.45;6.32;;;;;;;;;;13102021;22;20346;-73
2024/03/10 17:12:36;;;;;;;9.48;6.05;;;;;;;;;;13111664;22;20033;-73
2024/03/10 17:17:42;;;;;;;9.13;6.90;;;;;;;;;;13109620;22;20067;-73
2024/03/10 17:22:45;;;;;;;9.93;6.72;;;;;;;;;;13111678;22;20105;-75
2024/03/10 17:27:50;;;;;;;9.20;7.35;;;;;;;;;;13074094;22;20474;-73
2024/03/10 17:32:54;;;;;;;12.27;7.63;;;;;;;;;;13107885;22;20339;-73
2024/03/10 17:37:58;;;;;;;10.00;6.80;;;;;;;;;;13110476;22;20638;-73
2024/03/10 17:43:04;;;;;;;8.38;6.50;;;;;;;;;;13101825;22;20022;-73
2024/03/10 17:48:10;;;;;;;8.00;5.78;;;;;;;;;;13105719;22;20545;-73
2024/03/10 17:53:15;;;;;;;9.27;7.03;;;;;;;;;;13109075;22;20079;-75
2024/03/10 17:58:19;;;;;;;9.88;7.30;;;;;;;;;;13108139;22;20030;-75
2024/03/10 18:03:23;;;;;;;10.43;7.40;;;;;;;;;;13107888;22;20408;-75
2024/03/10 18:08:26;;;;;;;12.88;8.30;;;;;;;;;;13107952;22;20427;-75
2024/03/10 18:13:32;;;;;;;11.57;8.48;;;;;;;;;;13073987;22;20023;-75
2024/03/10 18:18:35;;;;;;;11.10;8.10;;;;;;;;;;13108337;22;20034;-75
2024/03/10 18:23:40;;;;;;;13.15;8.40;;;;;;;;;;13074709;22;20015;-75
2024/03/10 18:28:46;;;;;;;10.05;7.35;;;;;;;;;;13105534;22;20073;-74
2024/03/10 18:33:49;;;;;;;10.00;7.43;;;;;;;;;;13106600;22;20026;-75
2024/03/10 18:38:54;;;;;;;9.93;6.75;;;;;;;;;;13104597;22;20034;-75
2024/03/10 18:44:01;;;;;;;12.10;8.23;;;;;;;;;;13102347;22;20109;-75
2024/03/10 18:49:04;;;;;;;11.65;8.75;;;;;;;;;;13105680;22;20533;-75
2024/03/10 18:54:08;;;;;;;12.27;8.65;;;;;;;;;;13107536;22;20018;-75
2024/03/10 18:59:13;;;;;;;12.52;8.38;;;;;;;;;;13076589;22;20113;-75
2024/03/10 19:04:17;;;;;;;11.52;8.50;;;;;;;;;;13106231;22;20049;-75
2024/03/10 19:09:20;;;;;;;11.38;8.40;;;;;;;;;;13103174;22;20046;-75
2024/03/10 19:14:25;;;;;;;11.73;8.30;;;;;;;;;;13105834;22;20023;-75
2024/03/10 19:19:29;;;;;;;12.02;8.38;;;;;;;;;;13075558;22;20084;-75
2024/03/10 19:24:33;;;;;;;13.48;9.38;;;;;;;;;;13104144;22;20627;-74
2024/03/10 19:29:37;;;;;;;11.40;7.88;;;;;;;;;;13102331;22;20022;-75
2024/03/10 19:34:40;;;;;;;15.75;8.13;;;;;;;;;;13106708;22;20022;-75
2024/03/10 19:39:44;;;;;;;10.55;7.28;;;;;;;;;;13103566;22;20113;-74
2024/03/10 19:44:49;;;;;;;10.90;7.78;;;;;;;;;;13104101;22;20026;-74
2024/03/10 19:49:52;;;;;;;11.55;8.20;;;;;;;;;;13075709;22;20030;-76
2024/03/10 19:54:57;;;;;;;13.75;8.80;;;;;;;;;;13076217;22;20073;-75
2024/03/10 20:00:02;;;;;;;12.45;8.63;;;;;;;;;;13101999;22;20019;-76
2024/03/10 20:05:15;;;;;;;12.70;9.05;;;;;;;;;;13103277;22;20023;-75
2024/03/10 20:10:19;;;;;;;14.10;9.60;;;;;;;;;;13104702;22;20019;-75
2024/03/10 20:15:24;;;;;;;12.55;9.27;;;;;;;;;;13076086;22;20086;-75
2024/03/10 20:20:27;;;;;;;14.32;10.02;;;;;;;;;;13123835;22;20106;-74
2024/03/10 20:25:31;;;;;;;12.80;9.43;;;;;;;;;;13123456;22;20018;-75
2024/03/10 20:30:36;;;;;;;14.00;10.10;;;;;;;;;;13104631;22;20019;-75
2024/03/10 20:35:40;;;;;;;12.90;8.27;;;;;;;;;;13122987;22;20098;-74
2024/03/10 20:40:45;;;;;;;10.65;7.88;;;;;;;;;;13121565;22;20515;-75
2024/03/10 20:45:50;;;;;;;10.43;7.18;;;;;;;;;;13104376;22;20046;-75
2024/03/10 20:50:54;;;;;;;10.25;7.25;;;;;;;;;;13121308;22;20469;-74
2024/03/10 20:55:58;;;;;;;11.23;7.80;;;;;;;;;;13121317;22;20025;-74
2024/03/10 21:01:04;;;;;;;10.70;8.05;;;;;;;;;;13103938;22;20638;-75
2024/03/10 21:06:08;;;;;;;;;;;;;;;;;;13104137;22;20023;-74
2024/03/10 21:11:11;;;;;;;10.18;6.45;;;;;;;;;;13118805;22;20341;-75
2024/03/10 21:16:16;;;;;;;10.75;7.63;;;;;;;;;;13119168;22;20018;-75
2024/03/10 21:21:19;;;;;;;10.63;7.50;;;;;;;;;;13103733;22;20019;-75
2024/03/10 21:26:23;;;;;;;11.52;7.60;;;;;;;;;;13118556;22;20458;-75
2024/03/10 21:31:29;;;;;;;9.40;7.13;;;;;;;;;;13075477;22;20018;-75
2024/03/10 21:36:32;;;;;;;9.70;7.13;;;;;;;;;;13103866;22;20038;-75
2024/03/10 21:41:35;;;;;;;10.85;7.30;;;;;;;;;;13113070;22;20110;-75
2024/03/10 21:46:40;;;;;;;10.95;6.93;;;;;;;;;;13114209;22;20019;-75
2024/03/10 21:51:45;;;;;;;9.05;6.53;;;;;;;;;;13112439;22;20564;-74
2024/03/10 21:56:48;;;;;;;10.27;7.13;;;;;;;;;;13078162;22;20030;-75
2024/03/10 22:01:53;;;;;;;11.15;7.30;;;;;;;;;;13116316;22;20026;-75
2024/03/10 22:06:56;;;;;;;9.32;7.15;;;;;;;;;;13114331;22;20030;-74
2024/03/10 22:11:59;;;;;;;10.80;7.93;;;;;;;;;;13114022;22;20093;-75
2024/03/10 22:17:04;;;;;;;10.23;7.22;;;;;;;;;;13114458;22;20090;-75
2024/03/10 22:22:08;;;;;;;11.88;7.95;;;;;;;;;;13117168;22;20034;-75
2024/03/10 22:27:11;;;;;;;10.77;7.53;;;;;;;;;;13116418;22;20466;-75
2024/03/10 22:32:16;;;;;;;11.60;7.93;;;;;;;;;;13116018;22;20106;-75
2024/03/10 22:37:19;;;;;;;10.43;7.07;;;;;;;;;;13115833;22;20093;-77
2024/03/10 22:42:23;;;;;;;10.95;7.80;;;;;;;;;;13115135;22;20057;-75
2024/03/10 22:47:27;;;;;;;11.95;8.45;;;;;;;;;;13114496;22;20093;-75
2024/03/10 22:52:33;;;;;;;13.35;9.90;;;;;;;;;;13076867;22;20725;-75
2024/03/10 22:57:37;;;;;;;15.00;10.57;;;;;;;;;;13105064;22;20061;-75
2024/03/10 23:02:41;;;;;;;14.75;9.52;;;;;;;;;;13075877;22;20051;-75
2024/03/10 23:07:45;;;;;;;13.30;9.52;;;;;;;;;;13113808;22;20014;-74
2024/03/10 23:12:48;;;;;;;14.48;9.32;;;;;;;;;;13075952;22;20033;-74
2024/03/10 23:17:53;;;;;;;13.20;9.32;;;;;;;;;;13102567;22;20046;-75
2024/03/10 23:22:57;;;;;;;13.25;9.35;;;;;;;;;;13075667;22;20518;-75
2024/03/10 23:28:01;;;;;;;13.13;9.32;;;;;;;;;;13076694;22;20042;-74
2024/03/10 23:33:06;;;;;;;13.10;9.18;;;;;;;;;;13074574;22;20126;-74
2024/03/10 23:38:09;;;;;;;13.38;9.75;;;;;;;;;;13110730;22;20023;-75
2024/03/10 23:43:13;;;;;;;14.32;9.35;;;;;;;;;;13075337;22;20042;-74
2024/03/10 23:48:18;;;;;;;13.27;8.30;;;;;;;;;;13108522;22;20442;-74
2024/03/10 23:53:21;;;;;;;11.90;8.40;;;;;;;;;;13109003;22;20023;-74
2024/03/10 23:58:25;;;;;;;13.10;9.27;;;;;;;;;;13103252;22;20043;-74
